createdAt,value
2024-02-09T00:01:00.802Z,10.42
2024-02-09T00:03:28.058Z,11.76
2024-02-09T00:05:56.381Z,11.57
2024-02-09T00:08:23.796Z,10.98
2024-02-09T00:10:50.985Z,10.72
2024-02-09T00:13:19.029Z,10.74
2024-02-09T00:15:47.623Z,10.90
2024-02-09T00:18:14.735Z,11.10
2024-02-09T00:20:41.649Z,10.18
2024-02-09T00:23:09.939Z,11.05
2024-02-09T00:25:37.719Z,10.59
2024-02-09T00:28:05.300Z,11.09
2024-02-09T00:30:33.456Z,10.42
2024-02-09T00:33:00.330Z,10.60
2024-02-09T00:35:31.234Z,10.83
2024-02-09T00:38:00.483Z,11.80
2024-02-09T00:40:28.839Z,11.63
2024-02-09T00:42:55.749Z,11.57
2024-02-09T00:45:22.598Z,11.85
2024-02-09T00:47:51.030Z,12.54
2024-02-09T00:50:18.280Z,12.53
2024-02-09T00:52:49.215Z,13.38
2024-02-09T00:55:16.521Z,13.03
2024-02-09T00:57:45.258Z,12.18
2024-02-09T01:00:14.255Z,14.79
2024-02-09T01:02:41.528Z,14.30
2024-02-09T01:05:09.422Z,14.35
2024-02-09T01:07:36.327Z,13.90
2024-02-09T01:10:03.556Z,13.72
2024-02-09T01:12:30.409Z,10.71
2024-02-09T01:14:58.637Z,6.22
2024-02-09T01:17:25.607Z,5.80
2024-02-09T01:19:52.542Z,10.09
2024-02-09T01:22:19.292Z,12.92
2024-02-09T01:24:46.074Z,6.14
2024-02-09T01:27:12.828Z,14.03
2024-02-09T01:29:39.544Z,14.35
2024-02-09T01:32:07.718Z,14.14
2024-02-09T01:34:35.116Z,11.82
2024-02-09T01:37:02.054Z,12.36
2024-02-09T01:39:28.822Z,6.27
2024-02-09T01:41:55.591Z,6.16
2024-02-09T01:44:22.304Z,5.94
2024-02-09T01:46:49.115Z,5.99
2024-02-09T01:49:17.477Z,6.01
2024-02-09T01:51:44.749Z,5.84
2024-02-09T01:54:12.239Z,5.97
2024-02-09T01:56:39.149Z,5.96
2024-02-09T01:59:06.939Z,5.76
2024-02-09T02:01:34.115Z,13.32
2024-02-09T02:04:01.260Z,9.70
2024-02-09T02:06:29.839Z,5.96
2024-02-09T02:08:56.569Z,5.92
2024-02-09T02:11:23.413Z,5.87
2024-02-09T02:13:50.089Z,5.92
2024-02-09T02:16:16.910Z,6.00
2024-02-09T02:18:45.863Z,6.09
2024-02-09T02:21:12.637Z,5.98
2024-02-09T02:23:45.891Z,6.11
2024-02-09T02:26:12.679Z,6.07
2024-02-09T02:28:39.508Z,6.15
2024-02-09T02:31:06.326Z,6.20
2024-02-09T02:33:33.262Z,11.74
2024-02-09T02:36:00.153Z,9.92
2024-02-09T02:38:26.937Z,9.75
2024-02-09T02:40:55.147Z,10.12
2024-02-09T02:43:21.928Z,9.49
2024-02-09T02:45:48.656Z,9.59
2024-02-09T02:48:15.430Z,9.68
2024-02-09T02:50:42.279Z,9.64
2024-02-09T02:53:08.982Z,9.08
2024-02-09T02:55:35.863Z,9.81
2024-02-09T02:58:04.225Z,10.47
2024-02-09T03:00:30.992Z,9.66
2024-02-09T03:02:57.781Z,9.56
2024-02-09T03:05:25.776Z,9.77
2024-02-09T03:08:33.116Z,9.78
2024-02-09T03:10:40.161Z,9.57
2024-02-09T03:13:08.490Z,9.82
2024-02-09T03:15:35.512Z,9.45
2024-02-09T03:18:02.517Z,9.67
2024-02-09T03:20:29.344Z,9.75
2024-02-09T03:22:56.086Z,9.71
2024-02-09T03:25:22.941Z,9.76
2024-02-09T03:27:49.735Z,9.61
2024-02-09T03:30:17.940Z,9.83
2024-02-09T03:32:45.021Z,9.62
2024-02-09T03:35:11.976Z,9.73
2024-02-09T03:37:38.753Z,9.72
2024-02-09T03:40:06.945Z,10.05
2024-02-09T03:42:33.762Z,7.94
2024-02-09T03:45:00.628Z,8.53
2024-02-09T03:47:28.890Z,7.89
2024-02-09T03:49:56.589Z,7.73
2024-02-09T03:52:24.357Z,8.01
2024-02-09T03:54:52.723Z,7.71
2024-02-09T03:57:20.039Z,7.82
2024-02-09T03:59:46.740Z,7.80
2024-02-09T04:02:13.772Z,7.89
2024-02-09T04:04:42.092Z,8.04
2024-02-09T04:07:08.957Z,7.87
2024-02-09T04:09:53.254Z,7.89
2024-02-09T04:12:23.469Z,7.96
2024-02-09T04:14:50.179Z,8.03
2024-02-09T04:17:16.949Z,8.06
2024-02-09T04:19:45.090Z,8.30
2024-02-09T04:22:11.981Z,8.26
2024-02-09T04:24:38.720Z,8.45
2024-02-09T04:27:06.070Z,8.45
2024-02-09T04:29:33.184Z,8.44
2024-02-09T04:32:00.557Z,8.52
2024-02-09T04:34:27.494Z,8.46
2024-02-09T04:36:55.816Z,8.60
2024-02-09T04:39:22.794Z,8.44
2024-02-09T04:41:51.499Z,8.46
2024-02-09T04:44:18.412Z,8.50
2024-02-09T04:46:45.204Z,8.46
2024-02-09T04:49:12.634Z,8.53
2024-02-09T04:51:40.294Z,8.67
2024-02-09T04:54:08.678Z,8.89
2024-02-09T04:56:35.742Z,8.78
2024-02-09T04:59:04.296Z,8.65
2024-02-09T05:01:32.431Z,8.64
2024-02-09T05:04:00.275Z,16.24
2024-02-09T05:06:27.783Z,13.36
2024-02-09T05:08:55.759Z,12.57
2024-02-09T05:11:27.840Z,12.50
2024-02-09T05:13:54.716Z,12.27
2024-02-09T05:16:22.042Z,12.37
2024-02-09T05:18:49.439Z,12.43
2024-02-09T05:21:16.306Z,12.53
2024-02-09T05:23:43.016Z,12.57
2024-02-09T05:26:10.836Z,12.53
2024-02-09T05:28:40.128Z,12.80
2024-02-09T05:31:07.270Z,12.34
2024-02-09T05:33:34.267Z,12.30
2024-02-09T05:36:01.025Z,12.28
2024-02-09T05:38:27.828Z,12.20
2024-02-09T05:40:54.628Z,12.35
2024-02-09T05:43:21.485Z,12.21
2024-02-09T05:45:49.626Z,12.49
2024-02-09T05:48:18.003Z,12.20
2024-02-09T05:50:45.397Z,12.20
2024-02-09T05:53:12.717Z,12.28
2024-02-09T05:55:40.816Z,12.40
2024-02-09T05:58:08.046Z,12.31
2024-02-09T06:00:34.868Z,12.20
2024-02-09T06:03:03.141Z,12.32
2024-02-09T06:05:30.098Z,12.09
2024-02-09T06:07:56.936Z,11.98
2024-02-09T06:10:23.759Z,12.09
2024-02-09T06:12:50.512Z,12.06
2024-02-09T06:15:17.245Z,12.24
2024-02-09T06:17:44.089Z,12.31
2024-02-09T06:20:12.794Z,12.53
2024-02-09T06:22:39.833Z,12.25
2024-02-09T06:25:06.952Z,12.20
2024-02-09T06:27:33.817Z,12.13
2024-02-09T06:30:01.045Z,12.07
2024-02-09T06:32:28.023Z,12.29
2024-02-09T06:34:55.016Z,12.23
2024-02-09T06:37:23.256Z,12.28
2024-02-09T06:39:50.079Z,12.24
2024-02-09T06:42:16.840Z,12.25
2024-02-09T06:44:43.600Z,12.22
2024-02-09T06:47:10.512Z,12.48
2024-02-09T06:49:37.292Z,12.51
2024-02-09T06:52:04.637Z,12.63
2024-02-09T06:54:32.773Z,12.87
2024-02-09T06:56:59.481Z,12.65
2024-02-09T06:59:26.268Z,12.36
2024-02-09T07:01:53.130Z,12.50
2024-02-09T07:04:20.217Z,12.56
2024-02-09T07:06:47.045Z,12.64
2024-02-09T07:11:42.970Z,12.62
2024-02-09T07:14:09.745Z,12.81
2024-02-09T07:16:36.555Z,12.60
2024-02-09T07:19:03.400Z,12.74
2024-02-09T07:21:30.246Z,12.56
2024-02-09T07:23:57.001Z,12.45
2024-02-09T07:26:23.773Z,12.50
2024-02-09T07:28:53.326Z,12.87
2024-02-09T07:31:20.179Z,12.51
2024-02-09T07:33:47.052Z,12.62
2024-02-09T07:36:14.070Z,12.49
2024-02-09T07:38:40.986Z,12.42
2024-02-09T07:41:10.732Z,12.70
2024-02-09T07:43:37.669Z,12.43
2024-02-09T07:46:06.373Z,12.78
2024-02-09T07:48:33.332Z,12.59
2024-02-09T07:51:00.187Z,12.52
2024-02-09T07:53:26.996Z,12.36
2024-02-09T07:55:53.985Z,12.32
2024-02-09T07:58:20.806Z,12.21
2024-02-09T08:00:47.697Z,12.14
2024-02-09T08:03:15.911Z,12.47
2024-02-09T08:05:42.633Z,12.24
2024-02-09T08:08:09.416Z,12.17
2024-02-09T08:10:36.169Z,12.07
2024-02-09T08:13:03.549Z,12.23
2024-02-09T08:15:30.343Z,12.28
2024-02-09T08:17:57.064Z,12.20
2024-02-09T08:20:25.488Z,12.38
2024-02-09T08:22:52.333Z,12.36
2024-02-09T08:25:19.373Z,12.07
2024-02-09T08:27:46.615Z,12.42
2024-02-09T08:30:14.271Z,12.48
2024-02-09T08:32:41.917Z,12.44
2024-02-09T08:35:09.198Z,12.62
2024-02-09T08:37:37.402Z,12.60
2024-02-09T08:40:04.765Z,12.41
2024-02-09T08:42:31.584Z,12.34
2024-02-09T08:44:58.396Z,12.32
2024-02-09T08:47:25.241Z,12.57
2024-02-09T08:49:52.121Z,12.49
2024-02-09T08:52:19.197Z,12.52
2024-02-09T08:54:47.479Z,12.74
2024-02-09T08:57:14.674Z,12.67
2024-02-09T08:59:41.609Z,12.77
2024-02-09T09:02:08.515Z,12.79
2024-02-09T09:04:35.342Z,13.04
2024-02-09T09:07:02.124Z,12.87
2024-02-09T09:09:28.863Z,12.98
2024-02-09T09:11:57.093Z,13.13
2024-02-09T09:14:24.143Z,12.75
2024-02-09T09:16:50.938Z,13.24
2024-02-09T09:19:18.386Z,13.19
2024-02-09T09:21:45.976Z,13.06
2024-02-09T09:24:12.747Z,12.93
2024-02-09T09:26:39.442Z,12.81
2024-02-09T09:29:07.540Z,13.35
2024-02-09T09:31:34.317Z,12.85
2024-02-09T09:34:01.298Z,12.98
2024-02-09T09:36:28.218Z,12.90
2024-02-09T09:38:54.944Z,12.96
2024-02-09T09:41:21.848Z,12.96
2024-02-09T09:43:48.901Z,13.18
2024-02-09T09:46:17.588Z,13.16
2024-02-09T09:48:45.417Z,13.05
2024-02-09T09:51:12.759Z,13.07
2024-02-09T09:53:42.171Z,13.22
2024-02-09T09:56:09.540Z,13.15
2024-02-09T09:58:37.042Z,13.26
2024-02-09T10:01:05.412Z,13.63
2024-02-09T10:03:34.325Z,14.05
2024-02-09T10:06:01.377Z,13.88
2024-02-09T10:08:28.554Z,14.07
2024-02-09T10:10:55.972Z,14.05
2024-02-09T10:13:24.064Z,14.05
2024-02-09T10:15:52.005Z,14.13
2024-02-09T10:18:19.217Z,14.15
2024-02-09T10:20:47.662Z,14.37
2024-02-09T10:23:15.860Z,14.25
2024-02-09T10:25:43.358Z,14.40
2024-02-09T10:28:10.644Z,14.10
2024-02-09T10:30:37.610Z,14.06
2024-02-09T10:33:04.641Z,14.13
2024-02-09T10:35:31.478Z,14.04
2024-02-09T10:37:59.845Z,14.44
2024-02-09T10:40:26.886Z,14.35
2024-02-09T10:42:54.707Z,14.30
2024-02-09T10:45:22.833Z,14.44
2024-02-09T10:47:53.585Z,14.47
2024-02-09T10:50:21.478Z,14.45
2024-02-09T10:52:49.764Z,14.49
2024-02-09T10:55:22.883Z,14.85
2024-02-09T10:57:50.626Z,14.50
2024-02-09T11:00:20.356Z,14.63
2024-02-09T11:02:47.317Z,14.38
2024-02-09T11:05:15.831Z,14.46
2024-02-09T11:07:44.699Z,14.63
2024-02-09T11:10:15.037Z,14.72
2024-02-09T11:12:43.417Z,14.92
2024-02-09T11:15:14.896Z,14.55
2024-02-09T11:17:46.274Z,14.28
2024-02-09T11:20:14.031Z,14.19
2024-02-09T11:22:44.420Z,14.44
2024-02-09T11:25:11.342Z,14.26
2024-02-09T11:27:38.234Z,14.21
2024-02-09T11:30:07.800Z,14.66
2024-02-09T11:32:36.760Z,14.63
2024-02-09T11:35:04.390Z,14.42
2024-02-09T11:37:31.242Z,14.40
2024-02-09T11:39:58.078Z,14.46
2024-02-09T11:42:34.531Z,14.45
2024-02-09T11:45:02.519Z,14.50
2024-02-09T11:47:30.961Z,14.85
2024-02-09T11:49:57.744Z,14.34
2024-02-09T11:52:24.641Z,14.36
2024-02-09T11:54:51.364Z,14.44
2024-02-09T11:57:18.188Z,14.23
2024-02-09T11:59:45.038Z,14.44
2024-02-09T12:02:12.028Z,14.92
2024-02-09T12:04:40.425Z,15.43
2024-02-09T12:07:07.487Z,15.27
2024-02-09T12:09:34.503Z,15.15
2024-02-09T12:12:01.270Z,15.02
2024-02-09T12:14:30.357Z,15.01
2024-02-09T12:16:57.658Z,14.95
2024-02-09T12:19:24.651Z,14.85
2024-02-09T12:21:53.004Z,14.92
2024-02-09T12:24:20.726Z,14.83
2024-02-09T12:26:47.454Z,14.92
2024-02-09T12:29:14.758Z,14.60
2024-02-09T12:31:41.662Z,14.61
2024-02-09T12:34:08.560Z,14.86
2024-02-09T12:36:35.580Z,15.19
2024-02-09T12:39:03.835Z,15.12
2024-02-09T12:41:30.612Z,14.84
2024-02-09T12:44:01.712Z,15.24
2024-02-09T12:46:30.694Z,15.24
2024-02-09T12:48:58.970Z,15.57
2024-02-09T12:51:26.040Z,15.66
2024-02-09T12:53:53.104Z,15.59
2024-02-09T12:56:21.369Z,15.60
2024-02-09T12:58:48.235Z,15.37
2024-02-09T13:01:15.542Z,15.72
2024-02-09T13:03:42.507Z,15.93
2024-02-09T13:06:09.349Z,16.03
2024-02-09T13:08:36.136Z,15.64
2024-02-09T13:11:04.774Z,15.56
2024-02-09T13:13:32.974Z,15.89
2024-02-09T13:15:59.720Z,15.58
2024-02-09T13:18:26.570Z,15.63
2024-02-09T13:20:53.427Z,15.59
2024-02-09T13:23:20.199Z,15.40
2024-02-09T13:25:47.042Z,15.07
2024-02-09T13:28:13.888Z,15.36
2024-02-09T13:30:42.043Z,15.51
2024-02-09T13:33:08.975Z,15.44
2024-02-09T13:35:35.769Z,15.68
2024-02-09T13:38:02.483Z,15.22
2024-02-09T13:40:29.293Z,15.34
2024-02-09T13:42:56.116Z,15.50
2024-02-09T13:45:23.085Z,15.32
2024-02-09T13:47:51.305Z,15.52
2024-02-09T13:50:18.131Z,15.13
2024-02-09T13:52:44.881Z,15.57
2024-02-09T13:55:12.352Z,15.54
2024-02-09T13:57:39.131Z,15.59
2024-02-09T14:00:07.500Z,15.74
2024-02-09T14:02:34.227Z,16.00
2024-02-09T14:05:03.884Z,16.03
2024-02-09T14:07:30.876Z,15.78
2024-02-09T14:09:57.754Z,15.84
2024-02-09T14:12:24.636Z,16.04
2024-02-09T14:14:51.651Z,15.88
2024-02-09T14:17:18.362Z,15.82
2024-02-09T14:19:45.403Z,16.12
2024-02-09T14:22:13.673Z,15.93
2024-02-09T14:24:40.572Z,15.45
2024-02-09T14:27:07.614Z,15.12
2024-02-09T14:29:34.345Z,15.37
2024-02-09T14:32:01.298Z,15.16
2024-02-09T14:34:28.143Z,15.57
2024-02-09T14:36:57.273Z,15.63
2024-02-09T14:39:25.706Z,15.64
2024-02-09T14:41:52.448Z,15.58
2024-02-09T14:44:19.688Z,15.54
2024-02-09T14:46:46.605Z,15.52
2024-02-09T14:49:13.554Z,15.69
2024-02-09T14:51:40.398Z,15.68
2024-02-09T14:54:07.113Z,15.60
2024-02-09T14:56:44.641Z,15.45
2024-02-09T14:59:15.604Z,15.27
2024-02-09T15:01:42.394Z,15.27
2024-02-09T15:04:10.091Z,15.54
2024-02-09T15:06:41.176Z,15.48
2024-02-09T15:09:07.994Z,15.48
2024-02-09T15:11:39.027Z,15.60
2024-02-09T15:14:05.876Z,15.53
2024-02-09T15:16:32.685Z,15.28
2024-02-09T15:18:59.544Z,15.38
2024-02-09T15:21:26.478Z,13.28
2024-02-09T15:23:53.341Z,13.35
2024-02-09T15:26:20.074Z,15.15
2024-02-09T15:28:48.222Z,16.18
2024-02-09T15:31:15.081Z,15.83
2024-02-09T15:33:42.180Z,16.23
2024-02-09T15:36:11.268Z,15.65
2024-02-09T15:38:38.429Z,15.41
2024-02-09T15:41:05.537Z,15.27
2024-02-09T15:43:32.406Z,15.24
2024-02-09T15:46:00.566Z,15.57
2024-02-09T15:48:27.511Z,15.03
2024-02-09T15:50:54.264Z,15.27
2024-02-09T15:53:20.941Z,14.98
2024-02-09T15:55:47.809Z,15.00
2024-02-09T15:58:14.581Z,15.04
2024-02-09T16:00:41.360Z,15.30
2024-02-09T16:03:09.509Z,15.25
2024-02-09T16:05:36.216Z,15.05
2024-02-09T16:08:03.178Z,15.34
2024-02-09T16:10:30.044Z,15.47
2024-02-09T16:12:56.752Z,14.76
2024-02-09T16:15:23.602Z,14.91
2024-02-09T16:17:50.574Z,14.88
2024-02-09T16:20:19.004Z,14.77
2024-02-09T16:22:46.535Z,14.59
2024-02-09T16:25:14.928Z,14.69
2024-02-09T16:27:43.238Z,14.59
2024-02-09T16:30:10.668Z,14.65
2024-02-09T16:32:37.728Z,14.59
2024-02-09T16:35:05.260Z,14.76
2024-02-09T16:37:33.449Z,14.89
2024-02-09T16:40:00.311Z,14.70
2024-02-09T16:42:27.099Z,14.56
2024-02-09T16:44:53.883Z,14.60
2024-02-09T16:47:20.550Z,14.38
2024-02-09T16:49:47.384Z,14.20
2024-02-09T16:52:14.153Z,14.18
2024-02-09T16:54:42.339Z,14.37
2024-02-09T16:57:09.059Z,14.26
2024-02-09T16:59:37.515Z,14.32
2024-02-09T17:02:05.037Z,14.20
2024-02-09T17:04:32.089Z,14.34
2024-02-09T17:06:58.908Z,14.32
2024-02-09T17:09:25.716Z,14.24
2024-02-09T17:11:53.870Z,14.28
2024-02-09T17:14:21.066Z,14.28
2024-02-09T17:16:48.774Z,14.30
2024-02-09T17:19:17.072Z,14.12
2024-02-09T17:21:44.003Z,14.04
2024-02-09T17:24:10.815Z,13.95
2024-02-09T17:26:37.577Z,13.97
2024-02-09T17:29:05.720Z,14.04
2024-02-09T17:31:32.444Z,14.02
2024-02-09T17:34:00.704Z,13.93
2024-02-09T17:36:28.744Z,13.91
2024-02-09T17:38:55.511Z,13.89
2024-02-09T17:41:22.319Z,13.89
2024-02-09T17:43:49.193Z,13.93
2024-02-09T17:46:17.496Z,13.99
2024-02-09T17:48:44.386Z,13.96
2024-02-09T17:51:11.338Z,14.03
2024-02-09T17:53:38.052Z,13.88
2024-02-09T17:56:05.208Z,13.79
2024-02-09T17:58:32.103Z,13.65
2024-02-09T18:00:58.871Z,13.61
2024-02-09T18:03:27.012Z,13.72
2024-02-09T18:05:54.055Z,13.50
2024-02-09T18:08:20.919Z,13.68
2024-02-09T18:10:47.786Z,13.65
2024-02-09T18:13:14.644Z,13.87
2024-02-09T18:15:41.433Z,13.77
2024-02-09T18:18:08.652Z,13.76
2024-02-09T18:20:37.470Z,13.80
2024-02-09T18:23:04.648Z,13.56
2024-02-09T18:25:31.426Z,13.58
2024-02-09T18:27:58.232Z,13.77
2024-02-09T18:30:24.992Z,13.70
2024-02-09T18:32:51.855Z,13.81
2024-02-09T18:35:18.675Z,13.64
2024-02-09T18:37:46.991Z,13.95
2024-02-09T18:40:14.299Z,13.80
2024-02-09T18:42:41.151Z,13.86
2024-02-09T18:45:08.555Z,13.91
2024-02-09T18:47:35.267Z,13.89
2024-02-09T18:50:02.113Z,13.98
2024-02-09T18:52:28.959Z,13.98
2024-02-09T18:54:57.301Z,14.03
2024-02-09T18:57:24.044Z,13.95
2024-02-09T18:59:50.883Z,13.98
2024-02-09T19:02:17.715Z,13.82
2024-02-09T19:04:44.546Z,13.92
2024-02-09T19:07:11.416Z,13.73
2024-02-09T19:09:38.390Z,13.65
2024-02-09T19:12:07.037Z,13.76
2024-02-09T19:14:36.085Z,13.82
2024-02-09T19:17:03.228Z,13.72
2024-02-09T19:19:30.045Z,13.86
2024-02-09T19:21:56.858Z,13.77
2024-02-09T19:24:23.617Z,13.82
2024-02-09T19:26:50.399Z,13.72
2024-02-09T19:29:18.618Z,13.93
2024-02-09T19:31:45.389Z,13.82
2024-02-09T19:34:12.383Z,13.91
2024-02-09T19:36:39.269Z,13.72
2024-02-09T19:39:06.174Z,13.80
2024-02-09T19:41:33.108Z,13.72
2024-02-09T19:43:59.799Z,13.86
2024-02-09T19:46:27.900Z,13.99
2024-02-09T19:48:54.786Z,13.78
2024-02-09T19:51:21.587Z,13.77
2024-02-09T19:53:48.445Z,13.51
2024-02-09T19:56:15.259Z,13.51
2024-02-09T19:58:42.078Z,13.47
2024-02-09T20:01:09.054Z,13.42
2024-02-09T20:03:37.352Z,13.23
2024-02-09T20:06:04.652Z,13.36
2024-02-09T20:08:31.363Z,13.29
2024-02-09T20:10:58.266Z,13.28
2024-02-09T20:13:25.150Z,13.21
2024-02-09T20:15:52.020Z,13.20
2024-02-09T20:18:19.128Z,13.22
2024-02-09T20:20:47.345Z,13.19
2024-02-09T20:23:14.063Z,12.94
2024-02-09T20:25:41.073Z,12.90
2024-02-09T20:28:08.290Z,13.14
2024-02-09T20:30:35.198Z,12.88
2024-02-09T20:33:02.124Z,12.94
2024-02-09T20:35:28.948Z,12.78
2024-02-09T20:37:57.094Z,12.85
2024-02-09T20:40:23.968Z,12.69
2024-02-09T20:42:50.741Z,12.67
2024-02-09T20:45:17.543Z,12.70
2024-02-09T20:47:44.450Z,12.78
2024-02-09T20:50:11.713Z,12.85
2024-02-09T20:52:38.455Z,12.91
2024-02-09T20:55:07.336Z,12.96
2024-02-09T20:57:35.476Z,13.01
2024-02-09T21:00:02.209Z,13.03
2024-02-09T21:02:28.983Z,12.99
2024-02-09T21:04:56.003Z,13.10
2024-02-09T21:07:22.882Z,13.08
2024-02-09T21:09:49.628Z,13.21
2024-02-09T21:12:19.473Z,13.33
2024-02-09T21:14:46.391Z,13.11
2024-02-09T21:17:13.094Z,13.07
2024-02-09T21:19:40.017Z,13.26
2024-02-09T21:22:06.792Z,13.27
2024-02-09T21:24:33.590Z,13.03
2024-02-09T21:27:00.451Z,13.20
2024-02-09T21:29:28.704Z,13.03
2024-02-09T21:31:55.508Z,13.10
2024-02-09T21:34:22.411Z,13.22
2024-02-09T21:36:49.274Z,13.18
2024-02-09T21:39:16.315Z,13.25
2024-02-09T21:41:43.340Z,13.30
2024-02-09T21:44:10.258Z,13.29
2024-02-09T21:46:38.444Z,13.28
2024-02-09T21:49:05.288Z,13.10
2024-02-09T21:51:32.351Z,13.15
2024-02-09T21:53:59.233Z,13.22
2024-02-09T21:56:26.236Z,13.24
2024-02-09T21:58:53.098Z,12.98
2024-02-09T22:01:20.089Z,13.01
2024-02-09T22:03:48.325Z,13.13
2024-02-09T22:06:15.500Z,13.00
2024-02-09T22:08:42.356Z,12.77
2024-02-09T22:11:09.093Z,12.81
2024-02-09T22:13:35.868Z,12.77
2024-02-09T22:16:02.607Z,12.94
2024-02-09T22:18:29.441Z,12.80
2024-02-09T22:21:04.638Z,12.92
2024-02-09T22:23:36.008Z,12.84
2024-02-09T22:26:02.702Z,12.84
2024-02-09T22:28:29.456Z,12.93
2024-02-09T22:30:56.327Z,12.86
2024-02-09T22:33:23.123Z,13.42
2024-02-09T22:35:49.928Z,12.91
2024-02-09T22:38:18.032Z,13.01
2024-02-09T22:40:44.803Z,12.86
2024-02-09T22:43:12.033Z,12.84
2024-02-09T22:45:38.833Z,12.70
2024-02-09T22:48:06.250Z,12.90
2024-02-09T22:50:33.012Z,12.69
2024-02-09T22:53:00.000Z,12.91
2024-02-09T22:55:28.223Z,12.98
2024-02-09T22:57:55.102Z,12.86
2024-02-09T23:00:21.949Z,12.78
2024-02-09T23:02:48.700Z,12.54
2024-02-09T23:05:15.636Z,12.43
2024-02-09T23:07:43.566Z,12.62
2024-02-09T23:10:11.055Z,12.88
2024-02-09T23:12:40.603Z,12.98
2024-02-09T23:15:09.191Z,12.87
2024-02-09T23:17:36.251Z,12.88
2024-02-09T23:20:03.363Z,12.81
2024-02-09T23:22:30.247Z,12.70
2024-02-09T23:24:56.991Z,12.64
2024-02-09T23:27:23.862Z,12.58
2024-02-09T23:29:51.973Z,12.79
2024-02-09T23:32:18.764Z,12.55
2024-02-09T23:34:45.561Z,12.53
2024-02-09T23:37:12.504Z,12.51
2024-02-09T23:39:39.240Z,12.54
2024-02-09T23:42:05.948Z,12.48
2024-02-09T23:44:32.822Z,12.49
2024-02-09T23:47:01.059Z,12.40
2024-02-09T23:49:28.029Z,12.26
2024-02-09T23:51:54.830Z,12.23
2024-02-09T23:54:21.736Z,12.19
2024-02-09T23:56:48.582Z,12.28
2024-02-09T23:59:16.031Z,12.31
